Time;durP1;ratioP1;P1;durP2;ratioP2;P2;SDS_P1;SDS_P2;PMS_P1;PMS_P2;Temp;Humidity;BMP_temperature;BMP_pressure;BME280_temperature;BME280_humidity;BME280_pressure;Samples;Min_cycle;Max_cycle;Signal;HPM_P1;HPM_P2
2023/02/19 00:02:15;;;;;;;;;;;19.20;53.80;;;;;;7521739;23;19985;-72
2023/02/19 00:05:15;;;;;;;;;;;19.20;53.80;;;;;;7521687;23;19914;-72
2023/02/19 00:08:16;;;;;;;;;;;19.30;54.00;;;;;;7521811;23;19913;-72
2023/02/19 00:11:17;;;;;;;;;;;19.20;53.90;;;;;;7522075;23;19913;-72
2023/02/19 00:14:19;;;;;;;;;;;19.20;53.90;;;;;;7521206;23;19906;-72
2023/02/19 00:17:20;;;;;;;;;;;19.20;53.80;;;;;;7522178;23;19906;-71
2023/02/19 00:20:20;;;;;;;;;;;19.30;54.00;;;;;;7521736;23;19917;-72
2023/02/19 00:23:21;;;;;;;;;;;19.20;53.90;;;;;;7521920;23;19916;-72
2023/02/19 00:26:22;;;;;;;;;;;19.20;53.90;;;;;;7521530;23;20306;-72
2023/02/19 00:29:23;;;;;;;;;;;19.20;53.90;;;;;;7521751;23;19913;-71
2023/02/19 00:32:25;;;;;;;;;;;19.20;53.90;;;;;;7523531;23;19905;-72
2023/02/19 00:35:25;;;;;;;;;;;19.20;53.90;;;;;;7523646;23;19913;-72
2023/02/19 00:38:26;;;;;;;;;;;19.20;53.90;;;;;;7522962;23;19918;-72
2023/02/19 00:41:27;;;;;;;;;;;19.20;53.90;;;;;;7523555;23;19916;-72
2023/02/19 00:44:28;;;;;;;;;;;19.20;53.90;;;;;;7522743;23;19914;-72
2023/02/19 00:47:28;;;;;;;;;;;19.20;53.90;;;;;;7523689;23;20016;-72
2023/02/19 00:50:29;;;;;;;;;;;19.20;53.90;;;;;;7522898;23;20340;-72
2023/02/19 00:53:29;;;;;;;;;;;19.20;53.90;;;;;;7523209;23;19909;-72
2023/02/19 00:56:30;;;;;;;;;;;19.20;53.90;;;;;;7522800;23;19906;-72
2023/02/19 00:59:30;;;;;;;;;;;19.20;53.90;;;;;;7523141;23;19906;-72
2023/02/19 01:02:31;;;;;;;;;;;19.20;53.90;;;;;;7522853;23;19911;-72
2023/02/19 01:05:31;;;;;;;;;;;19.20;53.90;;;;;;7522939;23;19914;-72
2023/02/19 01:08:32;;;;;;;;;;;19.20;53.90;;;;;;7523032;23;19909;-72
2023/02/19 01:11:33;;;;;;;;;;;19.20;53.90;;;;;;7523214;23;19909;-72
2023/02/19 01:14:34;;;;;;;;;;;19.20;53.90;;;;;;7523501;23;19933;-72
2023/02/19 01:17:35;;;;;;;;;;;19.20;53.90;;;;;;7523132;23;20245;-72
2023/02/19 01:20:40;;;;;;;;;;;19.20;53.90;;;;;;7523024;23;19940;-72
2023/02/19 01:23:40;;;;;;;;;;;19.20;53.90;;;;;;7522674;23;19909;-72
2023/02/19 01:26:41;;;;;;;;;;;19.20;53.90;;;;;;7523075;23;19906;-72
2023/02/19 01:29:42;;;;;;;;;;;19.20;53.90;;;;;;7523414;23;19992;-72
2023/02/19 01:32:42;;;;;;;;;;;19.20;53.90;;;;;;7522535;23;19964;-72
2023/02/19 01:35:43;;;;;;;;;;;19.20;53.90;;;;;;7523204;23;20232;-72
2023/02/19 01:38:44;;;;;;;;;;;19.20;53.90;;;;;;7522528;23;19917;-72
2023/02/19 01:41:44;;;;;;;;;;;19.20;54.00;;;;;;7522594;23;19906;-71
2023/02/19 01:44:45;;;;;;;;;;;19.20;53.90;;;;;;7568476;23;19914;-72
2023/02/19 01:47:48;;;;;;;;;;;19.20;53.90;;;;;;7523073;23;19906;-72
2023/02/19 01:50:51;;;;;;;;;;;19.20;53.90;;;;;;7523053;23;20229;-71
2023/02/19 01:53:55;;;;;;;;;;;19.20;53.90;;;;;;7519786;23;20004;-72
2023/02/19 01:56:56;;;;;;;;;;;19.20;53.90;;;;;;7523276;23;19913;-72
2023/02/19 01:59:58;;;;;;;;;;;19.20;53.90;;;;;;7522779;23;19914;-73
2023/02/19 02:02:59;;;;;;;;;;;19.20;53.90;;;;;;7523029;23;19912;-72
2023/02/19 02:06:02;;;;;;;;;;;19.20;53.80;;;;;;7522700;23;19914;-72
2023/02/19 02:12:22;;;;;;;;;;;19.20;53.90;;;;;;7523047;23;19913;-71
2023/02/19 02:15:24;;;;;;;;;;;19.20;53.90;;;;;;7523101;23;19913;-71
2023/02/19 02:18:30;;;;;;;;;;;19.20;53.90;;;;;;7522816;23;19917;-72
2023/02/19 02:21:48;;;;;;;;;;;19.20;53.90;;;;;;7522922;23;19906;-72
2023/02/19 02:25:00;;;;;;;;;;;19.20;53.90;;;;;;7522629;23;19971;-73
2023/02/19 02:28:01;;;;;;;;;;;19.20;53.90;;;;;;7522575;23;19910;-72
2023/02/19 02:31:03;;;;;;;;;;;19.20;53.90;;;;;;7522467;23;19906;-72
2023/02/19 02:34:06;;;;;;;;;;;19.20;53.90;;;;;;7522774;23;19928;-72
2023/02/19 02:37:08;;;;;;;;;;;19.20;53.90;;;;;;7522501;23;19921;-72
2023/02/19 02:40:09;;;;;;;;;;;19.20;53.90;;;;;;7522569;23;19909;-72
2023/02/19 02:43:11;;;;;;;;;;;19.20;53.90;;;;;;7522615;23;19910;-72
2023/02/19 02:46:15;;;;;;;;;;;19.20;53.90;;;;;;7522395;23;19913;-72
2023/02/19 02:49:19;;;;;;;;;;;19.20;53.90;;;;;;7522331;23;20296;-72
2023/02/19 02:55:48;;;;;;;;;;;19.20;53.90;;;;;;7509997;23;19919;-72
2023/02/19 02:58:49;;;;;;;;;;;19.20;53.90;;;;;;7522687;23;19952;-72
2023/02/19 03:02:10;;;;;;;;;;;19.20;53.90;;;;;;7522845;23;19929;-72
2023/02/19 03:08:47;;;;;;;;;;;19.20;53.90;;;;;;7522878;23;19905;-72
2023/02/19 03:22:01;;;;;;;;;;;19.20;53.90;;;;;;7522656;23;19933;-72
2023/02/19 03:32:02;;;;;;;;;;;19.20;53.90;;;;;;7522327;23;19913;-72
2023/02/19 03:35:10;;;;;;;;;;;19.20;53.90;;;;;;7522224;23;20419;-72
2023/02/19 03:38:31;;;;;;;;;;;19.20;53.90;;;;;;7522184;23;19922;-72
2023/02/19 03:41:34;;;;;;;;;;;19.20;53.90;;;;;;7521449;23;19916;-72
2023/02/19 03:44:47;;;;;;;;;;;19.20;53.90;;;;;;7522131;23;20004;-72
2023/02/19 03:48:06;;;;;;;;;;;19.20;53.90;;;;;;7530368;23;19981;-73
2023/02/19 03:51:15;;;;;;;;;;;19.20;53.90;;;;;;7483204;23;20258;-72
2023/02/19 03:54:22;;;;;;;;;;;19.20;53.90;;;;;;7482628;23;19916;-72
2023/02/19 03:57:27;;;;;;;;;;;19.20;53.90;;;;;;7482943;23;20353;-72
2023/02/19 04:00:42;;;;;;;;;;;19.20;53.90;;;;;;7482866;23;19906;-72
2023/02/19 04:03:51;;;;;;;;;;;19.20;53.90;;;;;;7482906;23;19941;-73
2023/02/19 04:06:53;;;;;;;;;;;19.20;53.90;;;;;;7483348;23;20238;-72
2023/02/19 04:09:54;;;;;;;;;;;19.20;53.90;;;;;;7484012;23;19910;-72
2023/02/19 04:13:02;;;;;;;;;;;19.20;53.90;;;;;;7484311;23;19980;-72
2023/02/19 04:16:06;;;;;;;;;;;19.20;53.90;;;;;;7483885;23;19981;-72
2023/02/19 04:19:12;;;;;;;;;;;19.20;53.90;;;;;;7484168;23;20421;-72
2023/02/19 04:22:14;;;;;;;;;;;19.20;53.90;;;;;;7508675;23;20152;-72
2023/02/19 04:25:15;;;;;;;;;;;19.20;53.90;;;;;;7523031;23;20000;-72
2023/02/19 04:28:17;;;;;;;;;;;19.20;53.90;;;;;;7523805;23;20014;-72
2023/02/19 04:31:17;;;;;;;;;;;19.20;53.80;;;;;;7523429;23;20107;-72
2023/02/19 04:34:18;;;;;;;;;;;19.20;53.90;;;;;;7523617;23;19909;-72
2023/02/19 04:37:18;;;;;;;;;;;19.20;53.90;;;;;;7523044;23;19922;-72
2023/02/19 04:40:18;;;;;;;;;;;19.20;53.90;;;;;;7523884;23;19909;-72
2023/02/19 04:43:19;;;;;;;;;;;19.20;53.90;;;;;;7523145;23;19906;-72
2023/02/19 04:46:20;;;;;;;;;;;19.20;53.90;;;;;;7523197;23;19913;-72
2023/02/19 04:49:20;;;;;;;;;;;19.20;53.90;;;;;;7523684;23;19913;-72
2023/02/19 04:52:21;;;;;;;;;;;19.20;53.90;;;;;;7522933;23;19964;-72
2023/02/19 04:55:21;;;;;;;;;;;19.20;53.90;;;;;;7522857;23;19913;-71
2023/02/19 04:58:22;;;;;;;;;;;19.20;53.80;;;;;;7523220;23;19972;-72
2023/02/19 05:01:23;;;;;;;;;;;19.10;53.80;;;;;;7523081;23;19909;-72
2023/02/19 05:04:24;;;;;;;;;;;19.20;53.90;;;;;;7522932;23;19922;-72
2023/02/19 05:07:24;;;;;;;;;;;19.20;53.80;;;;;;7523218;23;19970;-72
2023/02/19 05:10:25;;;;;;;;;;;19.20;53.80;;;;;;7523232;23;20293;-72
2023/02/19 05:13:25;;;;;;;;;;;19.10;53.70;;;;;;7522763;23;20370;-72
2023/02/19 05:16:26;;;;;;;;;;;19.20;53.90;;;;;;7523022;23;20351;-72
2023/02/19 05:19:27;;;;;;;;;;;19.20;53.90;;;;;;7522424;23;19913;-72
2023/02/19 05:22:28;;;;;;;;;;;19.20;53.80;;;;;;7523236;23;19906;-72
2023/02/19 05:25:28;;;;;;;;;;;19.20;53.90;;;;;;7522650;23;20000;-72
2023/02/19 05:28:29;;;;;;;;;;;19.20;53.90;;;;;;7523050;23;19916;-73
2023/02/19 05:31:32;;;;;;;;;;;19.20;53.90;;;;;;7523926;23;19928;-73
2023/02/19 05:34:32;;;;;;;;;;;19.20;53.90;;;;;;7522721;23;19917;-72
2023/02/19 05:37:33;;;;;;;;;;;19.20;53.80;;;;;;7522776;23;19925;-72
2023/02/19 05:40:33;;;;;;;;;;;19.20;53.90;;;;;;7522859;23;19941;-72
2023/02/19 05:43:34;;;;;;;;;;;19.20;53.90;;;;;;7521675;23;19937;-72
2023/02/19 05:46:34;;;;;;;;;;;19.20;53.90;;;;;;7522104;23;19914;-72
2023/02/19 05:49:35;;;;;;;;;;;19.20;53.90;;;;;;7522985;23;19917;-72
2023/02/19 05:52:35;;;;;;;;;;;19.20;53.90;;;;;;7522735;23;19906;-72
2023/02/19 05:55:36;;;;;;;;;;;19.20;53.90;;;;;;7569504;23;19940;-72
2023/02/19 05:58:36;;;;;;;;;;;19.20;53.90;;;;;;7522845;23;19906;-72
2023/02/19 06:01:37;;;;;;;;;;;19.10;53.80;;;;;;7522564;23;20300;-72
2023/02/19 06:04:38;;;;;;;;;;;19.20;54.00;;;;;;7522825;23;19918;-72
2023/02/19 06:07:38;;;;;;;;;;;19.20;53.90;;;;;;7522387;23;20253;-72
2023/02/19 06:10:40;;;;;;;;;;;19.20;53.90;;;;;;7523084;23;19909;-71
2023/02/19 06:13:40;;;;;;;;;;;19.20;53.90;;;;;;7522558;23;19973;-72
2023/02/19 06:16:41;;;;;;;;;;;19.20;53.90;;;;;;7522615;23;19917;-72
2023/02/19 06:19:41;;;;;;;;;;;19.20;54.00;;;;;;7523122;23;19905;-72
2023/02/19 06:22:42;;;;;;;;;;;19.20;54.00;;;;;;7522738;23;20322;-72
2023/02/19 06:25:42;;;;;;;;;;;19.20;54.00;;;;;;7522738;23;19918;-72
2023/02/19 06:28:43;;;;;;;;;;;19.20;54.00;;;;;;7522576;23;19916;-72
2023/02/19 06:31:44;;;;;;;;;;;19.20;54.00;;;;;;7522733;23;19984;-73
2023/02/19 06:34:44;;;;;;;;;;;19.20;54.00;;;;;;7522481;23;19989;-72
2023/02/19 06:37:46;;;;;;;;;;;19.20;54.00;;;;;;7522606;23;19922;-72
2023/02/19 06:40:46;;;;;;;;;;;19.20;54.00;;;;;;7522094;23;19906;-73
2023/02/19 06:43:47;;;;;;;;;;;19.20;54.00;;;;;;7522318;23;19909;-72
2023/02/19 06:46:47;;;;;;;;;;;19.20;54.00;;;;;;7522426;23;19999;-72
2023/02/19 06:49:48;;;;;;;;;;;19.20;54.00;;;;;;7522165;23;19937;-72
2023/02/19 06:52:48;;;;;;;;;;;19.20;54.00;;;;;;7522600;23;19910;-72
2023/02/19 06:55:59;;;;;;;;;;;19.20;54.00;;;;;;7522664;23;19949;-72
2023/02/19 06:59:02;;;;;;;;;;;19.20;54.00;;;;;;7521640;23;19936;-72
2023/02/19 07:02:02;;;;;;;;;;;19.20;54.00;;;;;;7522588;23;19905;-72
2023/02/19 07:05:03;;;;;;;;;;;19.20;54.00;;;;;;7522118;23;19971;-72
2023/02/19 07:08:04;;;;;;;;;;;19.20;54.00;;;;;;7521816;23;19906;-72
2023/02/19 07:11:04;;;;;;;;;;;19.20;54.00;;;;;;7522267;23;20284;-72
2023/02/19 07:14:06;;;;;;;;;;;19.20;54.00;;;;;;7522105;23;19906;-72
2023/02/19 07:17:07;;;;;;;;;;;19.20;54.00;;;;;;7522283;23;20436;-72
2023/02/19 07:20:07;;;;;;;;;;;19.20;54.00;;;;;;7522316;23;19906;-71
2023/02/19 07:23:08;;;;;;;;;;;19.20;54.00;;;;;;7522068;23;19906;-72
2023/02/19 07:26:10;;;;;;;;;;;19.20;54.00;;;;;;7522397;23;19953;-71
2023/02/19 07:29:10;;;;;;;;;;;19.20;54.00;;;;;;7521579;23;19912;-71
2023/02/19 07:32:10;;;;;;;;;;;19.20;54.00;;;;;;7522302;23;19906;-72
2023/02/19 07:35:11;;;;;;;;;;;19.20;54.00;;;;;;7522348;23;19928;-72
2023/02/19 07:38:14;;;;;;;;;;;19.20;54.00;;;;;;7522078;23;19968;-72
2023/02/19 07:41:14;;;;;;;;;;;19.20;54.00;;;;;;7521431;23;19910;-72
2023/02/19 07:44:15;;;;;;;;;;;19.20;54.00;;;;;;7522029;23;19985;-72
2023/02/19 07:47:16;;;;;;;;;;;19.20;54.00;;;;;;7521385;23;19910;-72
2023/02/19 07:50:16;;;;;;;;;;;19.20;54.00;;;;;;7522749;23;19932;-72
2023/02/19 07:53:17;;;;;;;;;;;19.20;54.00;;;;;;7522294;23;19952;-72
2023/02/19 07:56:18;;;;;;;;;;;19.20;54.00;;;;;;7521981;23;19906;-72
2023/02/19 07:59:20;;;;;;;;;;;19.20;54.00;;;;;;7522065;23;19960;-72
2023/02/19 08:05:40;;;;;;;;;;;19.20;54.00;;;;;;7522038;23;20190;-72
2023/02/19 08:08:41;;;;;;;;;;;19.20;54.00;;;;;;7521589;23;20261;-72
2023/02/19 08:15:01;;;;;;;;;;;19.20;54.00;;;;;;7520564;23;19927;-72
2023/02/19 08:18:01;;;;;;;;;;;19.20;54.10;;;;;;7568439;23;19970;-72
2023/02/19 08:21:02;;;;;;;;;;;19.20;54.10;;;;;;7521407;23;20021;-72
2023/02/19 08:24:02;;;;;;;;;;;19.20;54.10;;;;;;7521781;23;19953;-72
2023/02/19 08:27:03;;;;;;;;;;;19.20;54.00;;;;;;7521160;23;19909;-72
2023/02/19 08:30:04;;;;;;;;;;;19.20;54.00;;;;;;7521505;23;19929;-71
2023/02/19 08:33:05;;;;;;;;;;;19.20;54.00;;;;;;7521395;23;19909;-72
2023/02/19 08:36:07;;;;;;;;;;;19.20;54.10;;;;;;7521843;23;19905;-71
2023/02/19 08:39:08;;;;;;;;;;;19.20;54.00;;;;;;7568192;23;19999;-72
2023/02/19 08:42:08;;;;;;;;;;;19.20;54.00;;;;;;7521297;23;19984;-72
2023/02/19 08:45:09;;;;;;;;;;;19.20;54.00;;;;;;7568167;23;19949;-72
2023/02/19 08:48:10;;;;;;;;;;;19.20;54.10;;;;;;7521059;23;19935;-72
2023/02/19 08:51:11;;;;;;;;;;;19.20;54.00;;;;;;7521699;23;19917;-72
2023/02/19 08:54:11;;;;;;;;;;;19.20;54.10;;;;;;7523085;23;19932;-72
2023/02/19 08:57:12;;;;;;;;;;;19.20;54.00;;;;;;7523590;23;19913;-72
2023/02/19 09:00:12;;;;;;;;;;;19.20;54.10;;;;;;7522624;23;19916;-72
2023/02/19 09:03:13;;;;;;;;;;;19.20;54.10;;;;;;7522468;23;19968;-72
2023/02/19 09:06:15;;;;;;;;;;;19.20;54.00;;;;;;7522879;23;20004;-72
2023/02/19 09:09:16;;;;;;;;;;;19.20;54.10;;;;;;7523168;23;19913;-72
2023/02/19 09:12:16;;;;;;;;;;;19.20;54.10;;;;;;7523768;23;19912;-72
2023/02/19 09:15:17;;;;;;;;;;;19.20;54.10;;;;;;7523139;23;19910;-72
2023/02/19 09:18:17;;;;;;;;;;;19.20;54.10;;;;;;7522519;23;19906;-72
2023/02/19 09:21:18;;;;;;;;;;;19.20;54.10;;;;;;7523074;23;20280;-71
2023/02/19 09:24:18;;;;;;;;;;;19.20;54.10;;;;;;7522403;23;19918;-72
2023/02/19 09:27:19;;;;;;;;;;;19.20;54.10;;;;;;7523234;23;19910;-72
2023/02/19 09:30:19;;;;;;;;;;;19.20;54.70;;;;;;7519778;23;19921;-72
2023/02/19 09:33:20;;;;;;;;;;;19.20;54.10;;;;;;7569560;23;19916;-72
2023/02/19 09:36:20;;;;;;;;;;;19.20;54.10;;;;;;7522841;23;19910;-72
2023/02/19 09:39:21;;;;;;;;;;;19.20;54.10;;;;;;7522283;23;19929;-72
2023/02/19 09:42:23;;;;;;;;;;;19.20;54.10;;;;;;7522824;23;20395;-72
2023/02/19 09:45:24;;;;;;;;;;;19.20;54.10;;;;;;7522696;23;20344;-72
2023/02/19 09:48:25;;;;;;;;;;;19.20;54.10;;;;;;7522190;23;19992;-72
2023/02/19 09:51:27;;;;;;;;;;;19.20;54.10;;;;;;7523124;23;19906;-72
2023/02/19 09:54:28;;;;;;;;;;;19.20;54.10;;;;;;7522306;23;19972;-72
2023/02/19 09:57:31;;;;;;;;;;;19.20;54.10;;;;;;7523047;23;19906;-71
2023/02/19 10:00:32;;;;;;;;;;;19.20;54.10;;;;;;7522911;23;19917;-72
2023/02/19 10:03:34;;;;;;;;;;;19.20;54.00;;;;;;7522298;23;19920;-72
2023/02/19 10:06:36;;;;;;;;;;;19.20;54.10;;;;;;7523509;23;20321;-72
2023/02/19 10:09:37;;;;;;;;;;;19.20;54.10;;;;;;7522439;23;19909;-72
2023/02/19 10:12:40;;;;;;;;;;;19.20;54.10;;;;;;7523093;23;20330;-72
2023/02/19 10:15:45;;;;;;;;;;;19.20;54.10;;;;;;7522348;23;19914;-71
2023/02/19 10:18:46;;;;;;;;;;;19.20;54.10;;;;;;7523562;23;19906;-72
2023/02/19 10:21:46;;;;;;;;;;;19.20;54.10;;;;;;7523057;23;20245;-72
2023/02/19 10:24:54;;;;;;;;;;;19.20;54.10;;;;;;7522515;23;19917;-72
2023/02/19 10:27:56;;;;;;;;;;;19.20;54.10;;;;;;7522515;23;19906;-72
2023/02/19 10:30:58;;;;;;;;;;;19.20;54.10;;;;;;7523008;23;19913;-72
2023/02/19 10:34:00;;;;;;;;;;;19.20;54.10;;;;;;7522704;23;19910;-72
2023/02/19 10:37:01;;;;;;;;;;;19.20;54.00;;;;;;7522901;23;20320;-72
2023/02/19 10:40:02;;;;;;;;;;;19.20;54.10;;;;;;7530262;23;19914;-72
2023/02/19 10:43:03;;;;;;;;;;;19.20;54.10;;;;;;7522538;23;20245;-72
2023/02/19 10:46:06;;;;;;;;;;;19.20;54.00;;;;;;7522095;23;19922;-72
2023/02/19 10:49:25;;;;;;;;;;;19.20;54.10;;;;;;7523005;23;20269;-71
2023/02/19 10:52:27;;;;;;;;;;;19.20;54.10;;;;;;7522965;23;20293;-72
2023/02/19 10:55:29;;;;;;;;;;;19.20;54.00;;;;;;7522365;23;19933;-72
2023/02/19 10:58:33;;;;;;;;;;;19.20;54.10;;;;;;7522557;23;20310;-72
2023/02/19 11:01:33;;;;;;;;;;;19.20;54.10;;;;;;7522422;23;19921;-72
2023/02/19 11:04:36;;;;;;;;;;;19.20;54.10;;;;;;7522314;23;20329;-72
2023/02/19 11:07:41;;;;;;;;;;;19.20;54.00;;;;;;7522289;23;20044;-72
2023/02/19 11:10:46;;;;;;;;;;;19.20;54.70;;;;;;7522263;23;19910;-71
2023/02/19 11:13:46;;;;;;;;;;;19.20;54.10;;;;;;7522091;23;19984;-72
2023/02/19 11:16:50;;;;;;;;;;;19.20;54.10;;;;;;7521811;23;20331;-72
2023/02/19 11:19:55;;;;;;;;;;;19.20;54.10;;;;;;7522435;23;19937;-72
2023/02/19 11:23:00;;;;;;;;;;;19.20;54.10;;;;;;7522424;23;19917;-72
2023/02/19 11:26:05;;;;;;;;;;;19.20;54.10;;;;;;7522148;23;19918;-72
2023/02/19 11:29:18;;;;;;;;;;;19.20;54.10;;;;;;7522302;23;20348;-72
2023/02/19 11:32:18;;;;;;;;;;;19.20;54.10;;;;;;7522813;23;19910;-72
2023/02/19 11:35:21;;;;;;;;;;;19.20;54.80;;;;;;7521879;23;19913;-72
2023/02/19 11:38:22;;;;;;;;;;;19.20;54.10;;;;;;7522341;23;19918;-72
2023/02/19 11:41:28;;;;;;;;;;;19.20;54.10;;;;;;7522181;23;19909;-72
2023/02/19 11:44:32;;;;;;;;;;;19.20;54.10;;;;;;7521785;23;19921;-72
2023/02/19 11:47:48;;;;;;;;;;;19.20;54.10;;;;;;7521854;23;19914;-72
2023/02/19 11:50:48;;;;;;;;;;;19.20;54.10;;;;;;7522246;23;20226;-72
2023/02/19 11:53:59;;;;;;;;;;;19.20;54.10;;;;;;7521969;23;19910;-73
2023/02/19 11:57:06;;;;;;;;;;;19.20;54.10;;;;;;7521282;23;20387;-72
2023/02/19 12:00:25;;;;;;;;;;;19.20;54.10;;;;;;7521772;23;19916;-71
2023/02/19 12:03:44;;;;;;;;;;;19.20;54.10;;;;;;7522162;23;20001;-72
2023/02/19 12:06:59;;;;;;;;;;;19.20;54.10;;;;;;7521498;23;20280;-72
2023/02/19 12:10:15;;;;;;;;;;;19.20;54.10;;;;;;7507214;23;19924;-72
2023/02/19 12:13:22;;;;;;;;;;;19.20;54.10;;;;;;7520655;23;19948;-73
2023/02/19 12:16:28;;;;;;;;;;;19.20;54.10;;;;;;7520018;23;19989;-72
2023/02/19 12:19:28;;;;;;;;;;;19.20;54.10;;;;;;7519928;23;20175;-72
2023/02/19 12:22:30;;;;;;;;;;;19.20;54.00;;;;;;7521127;23;20333;-72
2023/02/19 12:25:40;;;;;;;;;;;19.20;54.00;;;;;;7519216;23;19996;-72
2023/02/19 12:28:41;;;;;;;;;;;19.20;54.00;;;;;;7522365;23;19913;-72
2023/02/19 12:31:48;;;;;;;;;;;19.20;54.00;;;;;;7521658;23;19905;-72
2023/02/19 12:34:52;;;;;;;;;;;19.20;54.00;;;;;;7521901;23;19944;-71
2023/02/19 12:38:06;;;;;;;;;;;19.20;54.00;;;;;;7521641;23;19924;-72
2023/02/19 12:41:12;;;;;;;;;;;19.20;54.10;;;;;;7521044;23;20320;-72
2023/02/19 12:44:12;;;;;;;;;;;19.20;54.10;;;;;;7522223;23;19918;-71
2023/02/19 12:47:21;;;;;;;;;;;19.20;54.10;;;;;;7521290;23;20339;-72
2023/02/19 12:50:24;;;;;;;;;;;19.20;54.10;;;;;;7521186;23;20000;-73
2023/02/19 12:53:36;;;;;;;;;;;19.20;54.10;;;;;;7521623;23;19916;-72
2023/02/19 12:56:57;;;;;;;;;;;19.20;54.10;;;;;;7521438;23;19956;-72
2023/02/19 13:00:03;;;;;;;;;;;19.20;54.10;;;;;;7490542;23;20376;-72
2023/02/19 13:03:13;;;;;;;;;;;19.20;54.10;;;;;;7521599;23;19988;-72
2023/02/19 13:06:13;;;;;;;;;;;19.20;54.10;;;;;;7520954;23;19921;-72
2023/02/19 13:09:25;;;;;;;;;;;19.20;54.10;;;;;;7521602;23;19906;-72
2023/02/19 13:12:27;;;;;;;;;;;19.20;54.10;;;;;;7521389;23;19917;-72
2023/02/19 13:15:40;;;;;;;;;;;19.20;54.10;;;;;;7521246;23;20198;-72
2023/02/19 13:18:45;;;;;;;;;;;19.20;54.10;;;;;;7521472;23;19993;-72
2023/02/19 13:25:10;;;;;;;;;;;19.20;54.10;;;;;;7521449;23;19914;-72
2023/02/19 13:28:33;;;;;;;;;;;19.20;54.10;;;;;;7520970;23;19910;-72
2023/02/19 13:31:36;;;;;;;;;;;19.20;54.10;;;;;;7493048;23;19921;-72
2023/02/19 13:34:40;;;;;;;;;;;19.20;54.10;;;;;;7521275;23;19906;-72
2023/02/19 13:37:40;;;;;;;;;;;19.20;54.20;;;;;;7671008;23;20025;-72
2023/02/19 13:40:51;;;;;;;;;;;19.20;54.10;;;;;;7520485;23;19905;-72
2023/02/19 13:43:56;;;;;;;;;;;19.20;54.10;;;;;;7512811;23;19906;-72
2023/02/19 13:46:59;;;;;;;;;;;19.20;54.10;;;;;;7520486;23;21395;-72
2023/02/19 13:50:06;;;;;;;;;;;19.20;54.20;;;;;;7528567;23;19913;-72
2023/02/19 13:53:27;;;;;;;;;;;19.20;54.20;;;;;;7521432;23;20242;-73
2023/02/19 13:56:33;;;;;;;;;;;19.20;54.10;;;;;;7490765;23;20237;-72
2023/02/19 13:59:36;;;;;;;;;;;19.20;54.10;;;;;;7520973;23;19909;-72
2023/02/19 14:02:36;;;;;;;;;;;19.20;54.20;;;;;;7521053;23;19913;-72
2023/02/19 14:05:57;;;;;;;;;;;19.20;54.20;;;;;;7521200;23;19914;-72
2023/02/19 14:08:59;;;;;;;;;;;19.20;54.20;;;;;;7520375;23;19910;-72
2023/02/19 14:12:09;;;;;;;;;;;19.20;54.20;;;;;;7520779;23;19905;-72
2023/02/19 14:15:28;;;;;;;;;;;19.20;54.20;;;;;;7521073;23;20236;-72
2023/02/19 14:18:41;;;;;;;;;;;19.20;54.20;;;;;;7520312;23;20432;-72
2023/02/19 14:21:42;;;;;;;;;;;19.20;54.20;;;;;;7521066;23;19976;-72
2023/02/19 14:24:43;;;;;;;;;;;19.20;54.20;;;;;;7519426;23;19999;-72
2023/02/19 14:27:43;;;;;;;;;;;19.20;54.20;;;;;;7521031;23;19967;-72
2023/02/19 14:30:49;;;;;;;;;;;19.20;54.20;;;;;;7521353;23;20237;-72
2023/02/19 14:33:51;;;;;;;;;;;19.20;54.20;;;;;;7521033;23;19910;-72
2023/02/19 14:36:53;;;;;;;;;;;19.20;54.20;;;;;;7521240;23;20226;-72
2023/02/19 14:39:56;;;;;;;;;;;19.20;54.20;;;;;;7519798;23;19924;-72
2023/02/19 14:42:57;;;;;;;;;;;19.20;54.20;;;;;;7509702;23;20466;-72
2023/02/19 14:46:00;;;;;;;;;;;19.10;54.10;;;;;;7520721;23;19940;-72
2023/02/19 14:49:20;;;;;;;;;;;19.20;54.20;;;;;;7520612;23;19906;-72
2023/02/19 14:52:27;;;;;;;;;;;19.20;54.20;;;;;;7519799;23;19906;-72
2023/02/19 14:55:35;;;;;;;;;;;19.20;54.20;;;;;;7521182;23;19906;-72
2023/02/19 14:58:38;;;;;;;;;;;19.20;54.20;;;;;;7519913;23;19917;-71
2023/02/19 15:01:39;;;;;;;;;;;19.20;54.20;;;;;;7520840;23;20336;-72
2023/02/19 15:04:40;;;;;;;;;;;19.20;54.20;;;;;;7520606;23;19924;-71
2023/02/19 15:07:41;;;;;;;;;;;19.20;54.30;;;;;;7520516;23;19936;-72
2023/02/19 15:10:42;;;;;;;;;;;19.20;54.30;;;;;;7520328;23;19979;-72
2023/02/19 15:13:46;;;;;;;;;;;19.20;54.30;;;;;;7520248;23;19992;-72
2023/02/19 15:16:47;;;;;;;;;;;19.20;54.20;;;;;;7521399;23;20325;-72
2023/02/19 15:19:47;;;;;;;;;;;19.20;54.30;;;;;;7513296;23;19910;-71
2023/02/19 15:22:48;;;;;;;;;;;19.20;54.20;;;;;;7518032;23;19937;-72
2023/02/19 15:25:49;;;;;;;;;;;19.20;54.20;;;;;;7520489;23;19917;-72
2023/02/19 15:29:22;;;;;;;;;;;19.20;54.30;;;;;;7520550;23;19910;-73
2023/02/19 15:32:25;;;;;;;;;;;19.20;54.20;;;;;;7487708;23;20285;-72
2023/02/19 15:35:27;;;;;;;;;;;19.20;54.30;;;;;;7520967;23;19916;-72
2023/02/19 15:38:27;;;;;;;;;;;19.20;54.30;;;;;;7519447;23;19921;-72
2023/02/19 15:41:30;;;;;;;;;;;19.20;54.30;;;;;;7520813;23;19956;-71
2023/02/19 15:44:57;;;;;;;;;;;19.20;54.30;;;;;;7519788;23;20329;-72
2023/02/19 15:48:01;;;;;;;;;;;19.20;54.30;;;;;;7517243;23;19929;-72
2023/02/19 15:51:07;;;;;;;;;;;19.20;54.30;;;;;;7520363;23;20265;-72
2023/02/19 15:54:14;;;;;;;;;;;19.20;54.30;;;;;;7520508;23;19910;-72
2023/02/19 15:57:20;;;;;;;;;;;19.20;54.30;;;;;;7520168;23;19914;-72
2023/02/19 16:00:41;;;;;;;;;;;19.20;54.30;;;;;;7520059;23;19968;-73
2023/02/19 16:03:42;;;;;;;;;;;19.20;54.30;;;;;;7566501;23;19929;-72
2023/02/19 16:06:56;;;;;;;;;;;19.20;54.30;;;;;;7520240;23;19917;-72
2023/02/19 16:10:18;;;;;;;;;;;19.20;54.30;;;;;;7519587;23;20275;-72
2023/02/19 16:13:22;;;;;;;;;;;19.20;54.40;;;;;;7520061;23;19999;-72
2023/02/19 16:16:28;;;;;;;;;;;19.20;54.30;;;;;;7520565;23;19910;-71
2023/02/19 16:19:31;;;;;;;;;;;19.20;54.30;;;;;;7519999;23;19905;-72
2023/02/19 16:22:39;;;;;;;;;;;19.20;54.30;;;;;;7520211;23;19936;-72
2023/02/19 16:25:42;;;;;;;;;;;19.20;54.30;;;;;;7519478;23;19921;-72
2023/02/19 16:28:43;;;;;;;;;;;19.20;54.30;;;;;;7520001;23;20317;-72
2023/02/19 16:31:51;;;;;;;;;;;19.20;54.30;;;;;;7520314;23;19916;-72
2023/02/19 16:34:51;;;;;;;;;;;19.20;54.30;;;;;;7519828;23;19906;-72
2023/02/19 16:37:58;;;;;;;;;;;19.20;54.40;;;;;;7519905;23;19922;-72
2023/02/19 16:41:19;;;;;;;;;;;19.20;54.40;;;;;;7519334;23;19906;-72
2023/02/19 16:44:19;;;;;;;;;;;19.20;54.30;;;;;;7519451;23;19910;-72
2023/02/19 16:47:26;;;;;;;;;;;19.20;54.30;;;;;;7519388;23;19905;-71
2023/02/19 16:50:27;;;;;;;;;;;19.20;54.30;;;;;;7520006;23;19952;-72
2023/02/19 16:53:28;;;;;;;;;;;19.20;54.30;;;;;;7519709;23;20389;-71
2023/02/19 16:56:29;;;;;;;;;;;19.20;54.30;;;;;;7519847;23;20326;-72
2023/02/19 16:59:30;;;;;;;;;;;19.20;54.30;;;;;;7519857;23;19910;-72
2023/02/19 17:02:32;;;;;;;;;;;19.20;54.30;;;;;;7519932;23;20222;-72
2023/02/19 17:05:32;;;;;;;;;;;19.20;54.30;;;;;;7519078;23;20225;-73
2023/02/19 17:08:35;;;;;;;;;;;19.20;54.30;;;;;;7519431;23;19921;-72
2023/02/19 17:11:36;;;;;;;;;;;19.20;54.30;;;;;;7519557;23;19937;-72
2023/02/19 17:14:37;;;;;;;;;;;19.20;54.30;;;;;;7520221;23;19932;-73
2023/02/19 17:17:37;;;;;;;;;;;19.20;54.30;;;;;;7521560;23;19914;-72
2023/02/19 17:20:39;;;;;;;;;;;19.20;54.30;;;;;;7520639;23;19910;-72
2023/02/19 17:23:39;;;;;;;;;;;19.20;54.30;;;;;;7520652;23;20397;-71
2023/02/19 17:26:40;;;;;;;;;;;19.20;55.00;;;;;;7520837;23;19913;-72
2023/02/19 17:29:40;;;;;;;;;;;19.20;54.30;;;;;;7520699;23;20451;-72
2023/02/19 17:32:41;;;;;;;;;;;19.20;54.30;;;;;;7522144;23;19909;-73
2023/02/19 17:35:43;;;;;;;;;;;19.20;54.30;;;;;;7521072;23;19910;-72
2023/02/19 17:38:44;;;;;;;;;;;19.20;54.30;;;;;;7520652;23;19992;-72
2023/02/19 17:41:44;;;;;;;;;;;19.20;54.30;;;;;;7567919;23;19905;-72
2023/02/19 17:44:46;;;;;;;;;;;19.20;54.30;;;;;;7521060;23;19996;-72
2023/02/19 17:47:46;;;;;;;;;;;19.20;54.30;;;;;;7521381;23;20260;-72
2023/02/19 17:50:49;;;;;;;;;;;19.20;54.30;;;;;;7520597;23;19905;-72
2023/02/19 17:53:49;;;;;;;;;;;19.20;54.30;;;;;;7521152;23;19932;-72
2023/02/19 17:56:50;;;;;;;;;;;19.20;54.30;;;;;;7521313;23;19910;-72
2023/02/19 17:59:50;;;;;;;;;;;19.20;54.30;;;;;;7519936;23;19912;-72
2023/02/19 18:02:51;;;;;;;;;;;19.20;54.30;;;;;;7517624;23;19929;-72
2023/02/19 18:05:51;;;;;;;;;;;19.20;54.20;;;;;;7520064;23;19921;-71
2023/02/19 18:08:52;;;;;;;;;;;19.20;54.20;;;;;;7520937;23;19933;-72
2023/02/19 18:11:52;;;;;;;;;;;19.20;54.10;;;;;;7522331;23;20270;-72
2023/02/19 18:14:55;;;;;;;;;;;19.20;54.20;;;;;;7671005;23;19910;-72
2023/02/19 18:17:56;;;;;;;;;;;19.20;54.20;;;;;;7521332;23;19934;-71
2023/02/19 18:20:57;;;;;;;;;;;19.20;54.20;;;;;;7520789;23;19906;-72
2023/02/19 18:23:57;;;;;;;;;;;19.20;54.20;;;;;;7520927;23;19906;-72